»·PEaware :: UAL1657 KLAS-KDEN

UAL1657 :: KLAS-KDEN

FLIGHT INFORMATION

Flight Status: Arrived
Operator:
United Airlines
More flights by this operator :: More flights under this callsign
Pilot: Alfredo R. (12181)
Aircraft: BOEING 737-800
(B738)
More flights by this aircraft type
Origin: KLAS McCarran Intl
United States
Destination: KDEN Denver Intl
United States
More flights between these airports :: More routes between these airports
Route: +STAAV8 MLF EKR KAILE2
File this flight plan on PilotEdge
Remarks:
Altitude:
(Current/Filed)
37,000ft
Speed:
(Current/Filed)
475kts
Departed: 25-Nov-17 06:53 PM
Arrived: 25-Nov-17 08:25 PM
Distance/Time
Traveled:
544nm/1:32
Distance/Time
To Go:
Arrived

Flight Plot

Page will automatically refresh every two minutes.

Flight plan parsing failed; only flown route is shown


Map Options




Map Legend


Flown Route
Filed Route
Departure Airport
Arrival Airport
Navaid (VOR, NDB)
Fix

Horizontal Profiles

Position Reports

Time Latitude Longitude Heading Altitude Ground
Speed
25-Nov-17 18:15 36.082954 -115.138743 226 2149ft 0kts
25-Nov-17 18:16 36.082954 -115.138743 226 2149ft 0kts
25-Nov-17 18:17 36.082954 -115.138743 226 2149ft 0kts
25-Nov-17 18:18 36.082954 -115.138743 226 2149ft 0kts
25-Nov-17 18:19 36.082954 -115.138743 226 2149ft 0kts
25-Nov-17 18:20 36.082954 -115.138743 226 2149ft 0kts
25-Nov-17 18:21 36.082954 -115.138743 226 2149ft 0kts
25-Nov-17 18:22 36.082954 -115.138743 226 2149ft 0kts
25-Nov-17 18:23 36.082954 -115.138743 226 2149ft 0kts
25-Nov-17 18:24 36.082954 -115.138743 226 2149ft 0kts
25-Nov-17 18:25 36.082954 -115.138743 226 2149ft 0kts
25-Nov-17 18:26 36.082954 -115.138743 226 2149ft 0kts
25-Nov-17 18:27 36.082954 -115.138743 226 2149ft 0kts
25-Nov-17 18:28 36.082954 -115.138743 226 2149ft 0kts
25-Nov-17 18:29 36.082954 -115.138743 226 2149ft 0kts
25-Nov-17 18:30 36.082954 -115.138743 226 2149ft 0kts
25-Nov-17 18:31 36.082954 -115.138743 226 2149ft 0kts
25-Nov-17 18:32 36.082954 -115.138743 226 2149ft 0kts
25-Nov-17 18:33 36.082992 -115.138693 226 2148ft 0kts
25-Nov-17 18:34 36.083189 -115.138461 207 2148ft 1kts
25-Nov-17 18:35 36.083603 -115.138371 186 2148ft 1kts
25-Nov-17 18:36 36.084111 -115.138259 212 2148ft 1kts
25-Nov-17 18:37 36.084203 -115.138085 271 2148ft 0kts
25-Nov-17 18:38 36.084203 -115.138085 271 2148ft 0kts
25-Nov-17 18:39 36.084203 -115.138085 271 2148ft 0kts
25-Nov-17 18:40 36.084203 -115.138085 271 2148ft 0kts
25-Nov-17 18:41 36.084203 -115.138092 271 2148ft 0kts
25-Nov-17 18:42 36.084206 -115.139136 270 2148ft 5kts
25-Nov-17 18:43 36.083605 -115.141258 225 2148ft 7kts
25-Nov-17 18:44 36.081822 -115.142210 151 2149ft 7kts
25-Nov-17 18:45 36.079919 -115.141620 181 2149ft 3kts
25-Nov-17 18:46 36.079679 -115.141625 180 2148ft 0kts
25-Nov-17 18:47 36.079590 -115.141626 180 2149ft 0kts
25-Nov-17 18:48 36.079578 -115.141626 180 2149ft 0kts
25-Nov-17 18:49 36.079260 -115.141631 180 2149ft 3kts
25-Nov-17 18:50 36.078245 -115.140945 92 2149ft 4kts
25-Nov-17 18:51 36.078244 -115.138884 89 2149ft 10kts
25-Nov-17 18:52 36.078248 -115.133892 89 2149ft 14kts
25-Nov-17 18:53 36.078253 -115.129530 90 2148ft 15kts
25-Nov-17 18:54 36.078260 -115.125222 89 2148ft 11kts
25-Nov-17 18:55 36.077708 -115.121910 130 2149ft 7kts
25-Nov-17 18:56 36.076917 -115.121305 177 2148ft 4kts
25-Nov-17 18:57 36.076402 -115.123370 269 2148ft 13kts
25-Nov-17 18:58 36.076379 -115.135088 269 2148ft 83kts
25-Nov-17 18:59 36.076580 -115.188382 268 3156ft 177kts
25-Nov-17 19:00 36.078256 -115.254219 276 4882ft 215kts
25-Nov-17 19:01 36.128310 -115.296141 4 7224ft 257kts
25-Nov-17 19:02 36.180391 -115.237442 69 9323ft 294kts
25-Nov-17 19:03 36.196803 -115.134441 90 11196ft 335kts
25-Nov-17 19:04 36.197793 -115.017686 90 13403ft 349kts
25-Nov-17 19:05 36.199035 -114.897096 90 15485ft 364kts
25-Nov-17 19:06 36.213839 -114.775697 49 17700ft 377kts
25-Nov-17 19:07 36.294111 -114.693066 35 19899ft 386kts
25-Nov-17 19:08 36.380373 -114.610710 34 21880ft 399kts
25-Nov-17 19:09 36.469228 -114.526389 34 23676ft 410kts
25-Nov-17 19:10 36.561150 -114.442159 28 25305ft 419kts
25-Nov-17 19:11 36.659992 -114.363855 28 26933ft 426kts
25-Nov-17 19:12 36.759083 -114.284858 28 28630ft 423kts
25-Nov-17 19:13 36.857983 -114.206023 27 30030ft 422kts
25-Nov-17 19:14 36.955658 -114.128217 27 31281ft 419kts
25-Nov-17 19:15 37.054057 -114.049859 27 32378ft 417kts
25-Nov-17 19:16 37.151202 -113.972536 27 33320ft 415kts
25-Nov-17 19:17 37.248316 -113.895273 26 34149ft 413kts
25-Nov-17 19:18 37.345021 -113.818372 26 34815ft 414kts
25-Nov-17 19:19 37.441669 -113.741551 26 35497ft 412kts
25-Nov-17 19:20 37.537757 -113.665213 25 36143ft 409kts
25-Nov-17 19:21 37.633762 -113.588979 25 36634ft 409kts
25-Nov-17 19:22 37.729774 -113.512774 25 37068ft 409kts
25-Nov-17 19:23 37.826260 -113.436248 25 37267ft 415kts
25-Nov-17 19:24 37.925505 -113.357562 25 37278ft 429kts
25-Nov-17 19:25 38.027889 -113.276451 26 37266ft 442kts
25-Nov-17 19:26 38.133339 -113.192924 26 37231ft 456kts
25-Nov-17 19:27 38.242379 -113.106607 26 37229ft 469kts
25-Nov-17 19:28 38.353242 -113.015112 41 37187ft 487kts
25-Nov-17 19:29 38.411524 -112.857392 65 37223ft 500kts
25-Nov-17 19:30 38.462631 -112.695480 65 37447ft 498kts
25-Nov-17 19:31 38.514302 -112.532604 65 37882ft 499kts
25-Nov-17 19:32 38.566342 -112.369224 64 38304ft 499kts
25-Nov-17 19:33 38.618567 -112.206071 64 38678ft 498kts
25-Nov-17 19:34 38.670709 -112.043729 64 39039ft 495kts
25-Nov-17 19:35 38.722862 -111.882051 64 39295ft 496kts
25-Nov-17 19:36 38.775646 -111.719028 63 39295ft 499kts
25-Nov-17 19:37 38.829166 -111.554494 63 39365ft 500kts
25-Nov-17 19:38 38.882565 -111.390979 63 39364ft 500kts
25-Nov-17 19:39 38.935373 -111.230085 63 39353ft 492kts
25-Nov-17 19:40 38.988462 -111.068860 62 39358ft 493kts
25-Nov-17 19:41 39.041966 -110.907024 62 39358ft 493kts
25-Nov-17 19:42 39.095667 -110.745275 62 39375ft 494kts
25-Nov-17 19:43 39.149400 -110.584049 61 39384ft 491kts
25-Nov-17 19:44 39.203486 -110.422413 61 39384ft 491kts
25-Nov-17 19:45 39.257699 -110.261214 61 39372ft 492kts
25-Nov-17 19:46 39.312286 -110.099386 61 39374ft 493kts
25-Nov-17 19:47 39.366813 -109.938429 60 39354ft 492kts
25-Nov-17 19:48 39.422165 -109.775673 60 39321ft 493kts
25-Nov-17 19:49 39.477376 -109.613953 59 39323ft 491kts
25-Nov-17 19:50 39.532728 -109.452476 59 39332ft 491kts
25-Nov-17 19:51 39.588118 -109.291694 60 39363ft 492kts
25-Nov-17 19:52 39.643811 -109.130535 59 39362ft 490kts
25-Nov-17 19:53 39.699606 -108.969694 59 39365ft 490kts
25-Nov-17 19:54 39.755419 -108.809471 58 39369ft 490kts
25-Nov-17 19:55 39.811936 -108.647743 58 39368ft 492kts
25-Nov-17 19:56 39.868695 -108.486107 58 39370ft 492kts
25-Nov-17 19:57 39.924017 -108.329124 58 39360ft 492kts
25-Nov-17 19:58 39.980880 -108.168444 57 39370ft 489kts
25-Nov-17 19:59 40.036701 -108.011268 57 39379ft 490kts
25-Nov-17 20:00 40.083807 -107.843762 70 39388ft 502kts
25-Nov-17 20:01 40.116918 -107.668692 69 39385ft 496kts
25-Nov-17 20:02 40.150424 -107.494685 68 39394ft 497kts
25-Nov-17 20:03 40.184138 -107.320914 69 39387ft 498kts
25-Nov-17 20:04 40.217593 -107.149620 68 38077ft 480kts
25-Nov-17 20:05 40.250217 -106.984181 68 36514ft 479kts
25-Nov-17 20:06 40.283184 -106.817790 67 34612ft 476kts
25-Nov-17 20:07 40.315500 -106.655891 67 32675ft 461kts
25-Nov-17 20:08 40.348250 -106.493187 67 30785ft 466kts
25-Nov-17 20:09 40.380775 -106.332433 68 29217ft 465kts
25-Nov-17 20:10 40.410234 -106.176194 69 27722ft 455kts
25-Nov-17 20:11 40.438390 -106.025230 72 26137ft 442kts
25-Nov-17 20:12 40.424977 -105.866308 98 24711ft 451kts
25-Nov-17 20:13 40.400688 -105.712416 97 23203ft 438kts
25-Nov-17 20:14 40.376921 -105.563394 98 21574ft 411kts
25-Nov-17 20:15 40.354705 -105.422575 96 20051ft 385kts
25-Nov-17 20:16 40.320919 -105.298864 118 18532ft 361kts
25-Nov-17 20:17 40.275199 -105.194560 118 16984ft 331kts
25-Nov-17 20:18 40.231470 -105.096161 118 15457ft 307kts
25-Nov-17 20:19 40.191632 -105.008292 118 14225ft 293kts
25-Nov-17 20:20 40.160074 -104.939078 118 13100ft 286kts
25-Nov-17 20:21 40.126466 -104.863887 118 11843ft 268kts
25-Nov-17 20:22 40.096751 -104.795660 118 10602ft 237kts
25-Nov-17 20:23 40.070759 -104.734553 118 9610ft 211kts
25-Nov-17 20:24 40.041820 -104.691079 144 8594ft 188kts
25-Nov-17 20:25 40.004635 -104.683495 184 7778ft 159kts
25-Nov-17 20:26 39.968242 -104.685501 185 6941ft 164kts
25-Nov-17 20:27 39.933142 -104.686232 182 6137ft 142kts
25-Nov-17 20:28 39.901350 -104.686717 179 5552ft 141kts
25-Nov-17 20:29 39.877432 -104.687027 179 5438ft 43kts
25-Nov-17 20:30 39.871403 -104.685040 140 5439ft 10kts
25-Nov-17 20:31 39.869477 -104.683798 180 5438ft 9kts
25-Nov-17 20:32 39.866462 -104.683821 181 5439ft 13kts
25-Nov-17 20:33 39.862496 -104.683876 179 5439ft 15kts
25-Nov-17 20:34 39.858515 -104.683940 179 5439ft 15kts
25-Nov-17 20:35 39.856864 -104.681565 91 5439ft 11kts
25-Nov-17 20:36 39.857240 -104.677486 89 5439ft 8kts
25-Nov-17 20:37 39.858047 -104.676815 351 5438ft 0kts

Navigation Log

Ident Type
Flight plan parsing failed, navigation log unavailable